Time;durP1;ratioP1;P1;durP2;ratioP2;P2;SDS_P1;SDS_P2;PMS_P1;PMS_P2;Temp;Humidity;BMP_temperature;BMP_pressure;BME280_temperature;BME280_humidity;BME280_pressure;Samples;Min_cycle;Max_cycle;Signal;HPM_P1;HPM_P2
2022/01/19 00:01:09;;;;;;;15.48;7.45;;;5.50;74.10;;;;;;4989727;28;20038;-50
2022/01/19 00:03:36;;;;;;;9.38;6.75;;;5.50;74.10;;;;;;4982788;28;20091;-45
2022/01/19 00:06:03;;;;;;;10.15;6.70;;;5.60;74.10;;;;;;4990529;28;20101;-44
2022/01/19 00:08:30;;;;;;;11.32;6.70;;;5.60;73.90;;;;;;4990407;28;20038;-46
2022/01/19 00:10:57;;;;;;;8.98;5.85;;;5.70;73.70;;;;;;4983678;28;20085;-46
2022/01/19 00:13:25;;;;;;;11.02;6.25;;;5.70;73.60;;;;;;5003935;28;20498;-45
2022/01/19 00:15:52;;;;;;;9.02;6.10;;;5.70;73.40;;;;;;4989718;28;20042;-47
2022/01/19 00:18:22;;;;;;;9.65;5.70;;;5.70;73.30;;;;;;4990080;28;20089;-49
2022/01/19 00:20:51;;;;;;;11.02;5.80;;;5.70;73.00;;;;;;4987338;28;20104;-50
2022/01/19 00:23:19;;;;;;;9.20;5.38;;;5.70;72.90;;;;;;4999584;28;20038;-44
2022/01/19 00:25:46;;;;;;;10.10;6.30;;;5.70;72.80;;;;;;4990528;28;20046;-47
2022/01/19 00:28:14;;;;;;;10.45;6.88;;;5.70;72.80;;;;;;4993020;28;20047;-49
2022/01/19 00:30:41;;;;;;;10.32;6.95;;;5.70;72.70;;;;;;4991573;28;20034;-45
2022/01/19 00:33:09;;;;;;;7.55;5.65;;;5.70;72.60;;;;;;4998291;28;20108;-45
2022/01/19 00:35:36;;;;;;;8.63;6.43;;;5.70;72.50;;;;;;5010195;28;20494;-48
2022/01/19 00:38:05;;;;;;;8.20;5.72;;;5.70;72.40;;;;;;4997441;28;20042;-47
2022/01/19 00:40:32;;;;;;;6.53;5.20;;;5.70;72.40;;;;;;5000666;28;20041;-47
2022/01/19 00:42:58;;;;;;;10.60;5.70;;;5.60;72.20;;;;;;5000861;28;20038;-48
2022/01/19 00:45:25;;;;;;;10.68;5.50;;;5.70;72.20;;;;;;4988939;28;20054;-45
2022/01/19 00:47:52;;;;;;;8.43;5.45;;;5.60;71.90;;;;;;4981633;28;20413;-46
2022/01/19 00:50:23;;;;;;;7.38;5.05;;;5.60;71.80;;;;;;4989939;28;20054;-46
2022/01/19 00:52:51;;;;;;;7.40;4.70;;;5.60;71.90;;;;;;5001936;28;20042;-48
2022/01/19 00:55:20;;;;;;;11.27;5.70;;;5.50;71.70;;;;;;5010743;28;20044;-48
2022/01/19 00:57:48;;;;;;;7.88;5.30;;;5.50;71.60;;;;;;4999653;28;20386;-46
2022/01/19 01:00:23;;;;;;;9.10;5.38;;;5.50;71.60;;;;;;5003443;28;20097;-49
2022/01/19 01:02:50;;;;;;;6.63;5.03;;;5.40;71.40;;;;;;5012369;28;20103;-50
2022/01/19 01:05:18;;;;;;;7.18;5.25;;;5.40;71.40;;;;;;4998477;28;20038;-46
2022/01/19 01:07:45;;;;;;;8.43;5.13;;;5.40;71.50;;;;;;4990578;28;20042;-47
2022/01/19 01:10:14;;;;;;;8.43;4.97;;;5.30;71.60;;;;;;5001288;28;20394;-48
2022/01/19 01:12:44;;;;;;;10.25;6.22;;;5.30;71.70;;;;;;5005640;28;20061;-47
2022/01/19 01:15:36;;;;;;;10.60;7.20;;;5.30;71.70;;;;;;5006560;28;20117;-49
2022/01/19 01:20:33;;;;;;;9.80;5.82;;;5.20;71.70;;;;;;4999231;28;20042;-50
2022/01/19 01:23:00;;;;;;;11.13;5.72;;;5.20;71.60;;;;;;4992458;28;20102;-48
2022/01/19 01:25:27;;;;;;;11.85;6.82;;;5.20;71.50;;;;;;4996805;28;20076;-48
2022/01/19 01:27:57;;;;;;;7.80;6.43;;;5.10;71.40;;;;;;5003979;28;20054;-49
2022/01/19 01:30:23;;;;;;;9.70;6.13;;;5.10;71.60;;;;;;5005091;28;20120;-48
2022/01/19 01:32:50;;;;;;;9.32;6.50;;;5.10;71.60;;;;;;4998199;28;20053;-46
2022/01/19 01:35:17;;;;;;;8.85;6.55;;;5.10;71.50;;;;;;5002215;28;20053;-47
2022/01/19 01:37:44;;;;;;;10.23;6.50;;;5.00;71.40;;;;;;5011369;28;20057;-49
2022/01/19 01:40:15;;;;;;;8.07;5.35;;;5.00;71.20;;;;;;5009272;28;20049;-48
2022/01/19 01:42:46;;;;;;;9.50;6.63;;;4.90;71.10;;;;;;5015334;28;20050;-47
2022/01/19 01:45:16;;;;;;;11.05;7.07;;;4.90;71.00;;;;;;4991124;28;20050;-46
2022/01/19 01:47:49;;;;;;;11.18;7.07;;;4.90;71.10;;;;;;5002518;28;20054;-48
2022/01/19 01:55:33;;;;;;;8.82;5.97;;;4.80;71.50;;;;;;4989933;28;20053;-45
2022/01/19 01:57:59;;;;;;;9.45;6.25;;;4.80;71.60;;;;;;5002970;28;20108;-49
2022/01/19 02:00:28;;;;;;;12.13;5.97;;;4.80;71.60;;;;;;5011282;28;20068;-45
2022/01/19 02:02:56;;;;;;;9.73;5.93;;;4.70;71.60;;;;;;4997799;28;20045;-47
2022/01/19 02:05:23;;;;;;;9.00;5.63;;;4.70;71.50;;;;;;5011611;28;20057;-44
2022/01/19 02:08:17;;;;;;;7.97;5.45;;;4.70;71.60;;;;;;5005972;28;20128;-46
2022/01/19 02:11:04;;;;;;;9.00;5.75;;;4.70;71.70;;;;;;4991347;28;20050;-49
2022/01/19 02:21:39;;;;;;;9.45;5.55;;;4.60;71.50;;;;;;5004160;28;20101;-45
2022/01/19 02:24:12;;;;;;;9.05;5.22;;;4.50;71.30;;;;;;4987000;28;20070;-46
2022/01/19 02:26:52;;;;;;;8.52;5.13;;;4.50;71.10;;;;;;5002611;28;20643;-49
2022/01/19 02:42:54;;;;;;;8.23;4.88;;;4.40;71.20;;;;;;5003951;28;20100;-49
2022/01/19 02:50:42;;;;;;;11.40;6.40;;;4.30;71.20;;;;;;5000662;28;20576;-44
2022/01/19 02:53:09;;;;;;;10.13;6.07;;;4.30;71.30;;;;;;5002266;28;20165;-48
2022/01/19 02:55:37;;;;;;;9.50;6.50;;;4.20;71.40;;;;;;5011266;28;20038;-51
2022/01/19 02:58:04;;;;;;;7.78;4.95;;;4.20;71.50;;;;;;4990508;28;20046;-48
2022/01/19 03:08:57;;;;;;;7.45;5.53;;;4.20;71.90;;;;;;4987038;28;20050;-47
2022/01/19 03:11:24;;;;;;;7.15;5.53;;;4.20;71.90;;;;;;5000266;28;20038;-47
2022/01/19 03:13:53;;;;;;;12.40;6.90;;;4.10;71.90;;;;;;5005276;28;20129;-47
2022/01/19 03:16:22;;;;;;;8.85;6.32;;;4.20;72.10;;;;;;4994822;28;20042;-45
2022/01/19 03:18:49;;;;;;;9.68;5.95;;;4.20;72.20;;;;;;4983732;28;20042;-48
2022/01/19 03:21:17;;;;;;;10.57;6.53;;;4.10;72.30;;;;;;5001168;28;20053;-45
2022/01/19 03:23:45;;;;;;;8.98;6.13;;;4.20;72.50;;;;;;4996948;28;20149;-47
2022/01/19 03:26:12;;;;;;;9.45;6.35;;;4.20;72.70;;;;;;4989000;28;20047;-48
2022/01/19 03:29:08;;;;;;;8.50;6.15;;;4.20;72.90;;;;;;5004297;28;20536;-50
2022/01/19 03:31:35;;;;;;;9.60;6.70;;;4.20;73.20;;;;;;5023399;22;20056;-50
2022/01/19 03:34:03;;;;;;;9.82;6.40;;;4.20;73.60;;;;;;4991573;28;20073;-50
2022/01/19 03:36:29;;;;;;;10.50;6.30;;;4.30;73.80;;;;;;4975954;28;20391;-50
2022/01/19 03:38:56;;;;;;;9.52;6.43;;;4.40;74.00;;;;;;4990384;28;20049;-50
2022/01/19 03:41:23;;;;;;;8.90;6.85;;;4.40;74.10;;;;;;5002135;28;20195;-52
2022/01/19 03:43:50;;;;;;;8.85;6.53;;;4.50;74.10;;;;;;4989674;28;20506;-52
2022/01/19 03:46:21;;;;;;;12.98;7.90;;;4.60;74.20;;;;;;4979933;28;20541;-50
2022/01/19 03:48:57;;;;;;;10.85;7.32;;;4.70;74.20;;;;;;4981449;28;20050;-53
2022/01/19 03:51:24;;;;;;;17.23;9.13;;;4.70;74.30;;;;;;4989739;28;20042;-52
2022/01/19 03:53:53;;;;;;;16.88;9.85;;;4.80;74.40;;;;;;4979017;28;20411;-50
2022/01/19 03:56:19;;;;;;;16.23;10.82;;;4.90;74.60;;;;;;4975668;28;20055;-50
2022/01/19 03:58:46;;;;;;;18.63;10.85;;;5.00;74.80;;;;;;4982672;28;20045;-52
2022/01/19 04:01:14;;;;;;;18.45;9.80;;;5.10;74.90;;;;;;4987675;28;20062;-49
2022/01/19 04:08:50;;;;;;;21.05;12.52;;;5.40;75.10;;;;;;4979092;28;20046;-53
2022/01/19 04:11:19;;;;;;;24.73;13.13;;;5.50;75.10;;;;;;4989826;28;20047;-48
2022/01/19 04:16:32;;;;;;;21.98;13.05;;;5.60;75.00;;;;;;4969183;28;20053;-49
2022/01/19 04:19:20;;;;;;;20.50;12.45;;;5.70;74.90;;;;;;4995290;28;20057;-52
2022/01/19 04:21:50;;;;;;;19.00;11.63;;;5.80;74.90;;;;;;4967367;28;20051;-48
2022/01/19 04:24:17;;;;;;;20.50;11.88;;;5.90;74.80;;;;;;4965516;28;20042;-51
2022/01/19 04:26:46;;;;;;;19.50;12.23;;;5.90;74.70;;;;;;4978088;28;20050;-49
2022/01/19 04:29:13;;;;;;;21.75;11.88;;;6.00;74.70;;;;;;4989047;28;20530;-49
2022/01/19 04:31:40;;;;;;;19.42;11.70;;;6.00;74.60;;;;;;4981157;28;20042;-48
2022/01/19 04:34:07;;;;;;;20.83;11.52;;;6.10;74.60;;;;;;4975908;28;20526;-50
2022/01/19 04:36:58;;;;;;;14.82;11.02;;;6.10;74.50;;;;;;4999986;28;20042;-48
2022/01/19 04:44:02;;;;;;;18.38;11.60;;;6.20;74.50;;;;;;4991994;28;20140;-48
2022/01/19 05:04:47;;;;;;;15.52;9.65;;;6.40;74.00;;;;;;4973526;28;20053;-49
2022/01/19 05:07:38;;;;;;;15.23;10.00;;;6.50;74.00;;;;;;4973263;28;20051;-49
2022/01/19 05:15:42;;;;;;;15.45;9.13;;;6.50;74.20;;;;;;4983661;28;20102;-52
2022/01/19 05:18:12;;;;;;;16.30;9.63;;;6.60;74.30;;;;;;4957162;28;20129;-51
2022/01/19 05:20:39;;;;;;;13.80;9.65;;;6.60;74.30;;;;;;4982689;28;20137;-53
2022/01/19 05:23:08;;;;;;;13.70;9.60;;;6.60;74.30;;;;;;4982318;28;20125;-53
2022/01/19 05:25:36;;;;;;;13.13;9.30;;;6.60;74.30;;;;;;4972954;28;20795;-50
2022/01/19 05:28:06;;;;;;;14.80;9.55;;;6.60;74.20;;;;;;4974799;28;20068;-53
2022/01/19 05:30:33;;;;;;;14.15;9.02;;;6.70;74.10;;;;;;4986446;28;20106;-51
2022/01/19 05:33:02;;;;;;;12.43;8.25;;;6.70;74.00;;;;;;4979816;28;20470;-51
2022/01/19 05:35:32;;;;;;;15.38;9.82;;;6.70;74.00;;;;;;4984496;28;20049;-54
2022/01/19 05:38:17;;;;;;;14.32;9.40;;;6.70;74.10;;;;;;4954915;28;20094;-51
2022/01/19 05:41:01;;;;;;;11.15;8.10;;;6.70;74.20;;;;;;4967883;28;20051;-50
2022/01/19 05:43:30;;;;;;;15.00;9.93;;;6.80;74.20;;;;;;4962724;28;20043;-56
2022/01/19 05:45:57;;;;;;;12.82;8.48;;;6.70;74.10;;;;;;4960611;28;20043;-50
2022/01/19 05:48:24;;;;;;;12.60;9.52;;;6.80;74.20;;;;;;4968048;28;20050;-50
2022/01/19 05:50:54;;;;;;;13.43;10.05;;;6.80;74.20;;;;;;4990957;28;20038;-48
2022/01/19 05:53:26;;;;;;;11.52;8.85;;;6.80;74.70;;;;;;4979995;28;20078;-48
2022/01/19 05:55:52;;;;;;;13.30;9.55;;;6.90;74.00;;;;;;4964510;28;20035;-52
2022/01/19 05:58:19;;;;;;;14.15;9.02;;;6.90;74.00;;;;;;4965297;28;20542;-50
2022/01/19 06:00:50;;;;;;;15.38;10.13;;;6.90;73.90;;;;;;4958879;28;20054;-50
2022/01/19 06:03:19;;;;;;;13.43;9.80;;;6.90;73.90;;;;;;4952088;28;20083;-49
2022/01/19 06:06:02;;;;;;;12.93;9.02;;;6.90;73.80;;;;;;4960030;28;20051;-52
2022/01/19 06:08:44;;;;;;;12.77;9.48;;;7.00;73.80;;;;;;4984735;28;20066;-52
2022/01/19 06:11:14;;;;;;;13.35;9.35;;;6.90;73.70;;;;;;4967476;28;20046;-49
2022/01/19 06:13:44;;;;;;;12.55;9.75;;;7.00;73.70;;;;;;4987003;28;20260;-51
2022/01/19 06:16:11;;;;;;;14.32;10.25;;;7.00;73.70;;;;;;4970771;28;20051;-51
2022/01/19 06:18:42;;;;;;;13.85;9.57;;;7.00;73.70;;;;;;4993133;28;20074;-53
2022/01/19 06:21:11;;;;;;;14.05;10.63;;;7.00;73.80;;;;;;4970292;28;20106;-51
2022/01/19 06:23:41;;;;;;;14.90;10.38;;;7.00;73.70;;;;;;4990788;28;20053;-54
2022/01/19 06:26:11;;;;;;;17.83;10.77;;;7.00;73.70;;;;;;4968049;28;20099;-50
2022/01/19 06:28:38;;;;;;;17.42;12.38;;;7.00;73.80;;;;;;4981895;28;20126;-50
2022/01/19 06:31:08;;;;;;;16.23;11.18;;;7.10;73.80;;;;;;4986046;28;20039;-51
2022/01/19 06:33:35;;;;;;;14.40;10.80;;;7.10;73.80;;;;;;4958821;28;20043;-52
2022/01/19 06:36:03;;;;;;;15.38;9.85;;;7.10;73.80;;;;;;4978433;28;20045;-53
2022/01/19 06:38:47;;;;;;;18.02;11.18;;;7.10;73.70;;;;;;4987779;28;20065;-50
2022/01/19 06:41:40;;;;;;;12.65;9.77;;;7.20;73.60;;;;;;4968847;28;20069;-51
2022/01/19 06:44:07;;;;;;;13.40;9.88;;;7.20;73.50;;;;;;4983521;28;20050;-54
2022/01/19 06:46:34;;;;;;;14.13;10.43;;;7.20;73.50;;;;;;4976607;28;20046;-51
2022/01/19 06:49:00;;;;;;;13.27;9.80;;;7.20;73.40;;;;;;4981008;28;20141;-50
2022/01/19 06:51:31;;;;;;;13.68;10.35;;;7.20;73.50;;;;;;4971989;28;20062;-51
2022/01/19 06:54:00;;;;;;;12.88;9.48;;;7.20;73.40;;;;;;4971377;28;20042;-49
2022/01/19 06:56:36;;;;;;;13.77;10.23;;;7.20;73.30;;;;;;4967617;28;20519;-51
2022/01/19 06:59:21;;;;;;;13.05;9.15;;;7.30;73.50;;;;;;4969931;28;20043;-53
2022/01/19 07:01:58;;;;;;;11.18;9.18;;;7.30;73.30;;;;;;4967091;28;20423;-51
2022/01/19 07:04:38;;;;;;;12.60;9.93;;;7.30;73.20;;;;;;4987045;28;20046;-52
2022/01/19 07:07:05;;;;;;;12.63;9.45;;;7.30;73.20;;;;;;4993262;28;20042;-52
2022/01/19 07:09:44;;;;;;;11.75;9.65;;;7.30;73.10;;;;;;4971757;28;20043;-51
2022/01/19 07:12:12;;;;;;;13.45;10.52;;;7.30;73.10;;;;;;4970107;28;20050;-51
2022/01/19 07:14:41;;;;;;;13.85;10.60;;;7.30;73.10;;;;;;4977480;28;20498;-52
2022/01/19 07:17:09;;;;;;;15.32;11.27;;;7.30;73.20;;;;;;4977841;28;20053;-53
2022/01/19 07:19:36;;;;;;;13.55;10.18;;;7.40;73.20;;;;;;4969720;28;20050;-49
2022/01/19 07:22:03;;;;;;;14.63;11.20;;;7.40;73.20;;;;;;4986605;28;20055;-48
2022/01/19 07:24:30;;;;;;;15.73;10.95;;;7.40;73.20;;;;;;4982345;28;20038;-52
2022/01/19 07:26:56;;;;;;;13.85;10.43;;;7.30;73.10;;;;;;4982792;28;20056;-52
2022/01/19 07:29:26;;;;;;;13.45;10.85;;;7.40;73.20;;;;;;4990699;28;20101;-50
2022/01/19 07:31:57;;;;;;;13.55;10.63;;;7.40;73.10;;;;;;4975864;28;20129;-52
2022/01/19 07:34:25;;;;;;;13.73;9.90;;;7.40;73.00;;;;;;4965479;28;20056;-52
2022/01/19 07:36:56;;;;;;;13.50;10.27;;;7.40;72.90;;;;;;4985377;28;20521;-53
2022/01/19 07:39:23;;;;;;;15.57;11.40;;;7.40;72.90;;;;;;4983975;28;20055;-51
2022/01/19 07:41:53;;;;;;;14.65;10.80;;;7.40;72.80;;;;;;4988437;28;20399;-50
2022/01/19 07:44:46;;;;;;;15.93;11.15;;;7.50;72.90;;;;;;4998072;28;20050;-48
2022/01/19 07:47:32;;;;;;;13.52;10.18;;;7.40;72.80;;;;;;4973069;28;20058;-51
2022/01/19 07:50:12;;;;;;;13.88;10.70;;;7.40;72.70;;;;;;4971276;28;20130;-53
2022/01/19 07:52:51;;;;;;;14.98;10.63;;;7.50;72.80;;;;;;4981874;28;20077;-53
2022/01/19 07:55:25;;;;;;;15.52;11.55;;;7.50;72.70;;;;;;4981695;28;20053;-48
2022/01/19 07:58:22;;;;;;;17.10;12.02;;;7.50;72.70;;;;;;4991580;28;20054;-51
2022/01/19 08:01:08;;;;;;;17.00;12.20;;;7.40;72.60;;;;;;4978307;28;20050;-50
2022/01/19 08:03:48;;;;;;;15.60;10.65;;;7.40;72.50;;;;;;4983378;28;20042;-50
2022/01/19 08:06:20;;;;;;;15.48;11.45;;;7.50;72.70;;;;;;4983716;28;20046;-51
2022/01/19 08:08:50;;;;;;;16.73;11.68;;;7.40;72.60;;;;;;4969018;28;20043;-51
2022/01/19 08:11:17;;;;;;;17.15;11.38;;;7.50;72.70;;;;;;4981781;28;20042;-49
2022/01/19 08:13:47;;;;;;;16.20;12.13;;;7.50;72.70;;;;;;4988066;28;20105;-53
2022/01/19 08:16:16;;;;;;;17.77;12.68;;;7.50;72.70;;;;;;4979968;28;20125;-52
2022/01/19 08:18:43;;;;;;;16.65;12.00;;;7.50;72.80;;;;;;4967804;28;20048;-52
2022/01/19 08:21:12;;;;;;;16.75;12.00;;;7.50;72.80;;;;;;4982561;28;20042;-49
2022/01/19 08:23:48;;;;;;;14.95;11.18;;;7.50;72.80;;;;;;4978512;28;20140;-53
2022/01/19 08:26:16;;;;;;;16.63;11.95;;;7.50;72.80;;;;;;4981806;28;20047;-49
2022/01/19 08:28:44;;;;;;;18.42;12.27;;;7.50;72.80;;;;;;4985591;28;20046;-51
2022/01/19 08:31:13;;;;;;;18.13;11.82;;;7.50;72.80;;;;;;4993604;28;20039;-52
2022/01/19 08:33:59;;;;;;;15.68;11.23;;;7.50;72.80;;;;;;4967697;28;20053;-52
2022/01/19 08:36:46;;;;;;;17.10;12.07;;;7.60;72.70;;;;;;4979279;28;20045;-49
2022/01/19 08:39:22;;;;;;;17.30;12.77;;;7.60;72.60;;;;;;5006092;28;20092;-53
2022/01/19 08:41:49;;;;;;;19.23;13.27;;;7.60;72.50;;;;;;4985466;28;20042;-52
2022/01/19 08:44:17;;;;;;;16.73;12.13;;;7.60;72.50;;;;;;4971528;28;20120;-50
2022/01/19 08:46:52;;;;;;;18.00;11.75;;;7.60;72.40;;;;;;4974320;28;20089;-53
2022/01/19 08:50:08;;;;;;;13.38;10.70;;;7.60;72.40;;;;;;4981867;28;20129;-54
2022/01/19 08:52:46;;;;;;;16.55;12.05;;;7.70;72.50;;;;;;5009600;28;20053;-54
2022/01/19 08:55:24;;;;;;;;;;;7.70;72.40;;;;;;4992540;28;20047;-52
2022/01/19 08:57:51;;;;;;;18.48;12.60;;;7.70;72.40;;;;;;4977368;28;20381;-50
2022/01/19 09:00:19;;;;;;;16.75;11.88;;;7.70;72.30;;;;;;4978833;28;20034;-50
2022/01/19 09:02:46;;;;;;;16.13;11.65;;;7.70;72.20;;;;;;4974632;28;20057;-50
2022/01/19 09:05:13;;;;;;;17.58;11.43;;;7.70;72.10;;;;;;4975367;28;20490;-53
2022/01/19 09:07:41;;;;;;;17.52;12.48;;;7.70;72.20;;;;;;4988165;28;20558;-51
2022/01/19 09:10:10;;;;;;;18.73;12.18;;;7.70;72.30;;;;;;4974651;28;20043;-48
2022/01/19 09:12:38;;;;;;;18.70;13.30;;;7.80;72.30;;;;;;4974513;28;20114;-52
2022/01/19 09:15:07;;;;;;;16.67;11.93;;;7.80;72.30;;;;;;4973334;28;20042;-51
2022/01/19 09:17:35;;;;;;;16.45;12.45;;;7.80;72.30;;;;;;4983450;28;20102;-51
2022/01/19 09:20:05;;;;;;;17.83;11.90;;;7.80;72.10;;;;;;4989664;28;20046;-51
2022/01/19 09:22:33;;;;;;;16.17;12.35;;;7.80;72.00;;;;;;4985655;28;20054;-56
2022/01/19 09:25:00;;;;;;;16.33;12.07;;;7.80;72.00;;;;;;4981347;28;20125;-49
2022/01/19 09:27:27;;;;;;;17.88;12.13;;;7.80;72.00;;;;;;4974833;28;20055;-53
2022/01/19 09:29:54;;;;;;;14.95;11.57;;;7.80;72.00;;;;;;4974338;28;20046;-52
2022/01/19 09:32:22;;;;;;;16.65;12.30;;;7.80;71.90;;;;;;4967957;28;20047;-53
2022/01/19 09:34:55;;;;;;;16.05;12.07;;;7.90;71.80;;;;;;4971991;28;20035;-55
2022/01/19 09:37:22;;;;;;;17.10;12.82;;;7.90;71.80;;;;;;4983408;28;20097;-53
2022/01/19 09:39:49;;;;;;;17.27;12.80;;;7.90;71.80;;;;;;4974324;28;20074;-51
2022/01/19 09:42:16;;;;;;;17.17;13.55;;;7.90;71.80;;;;;;4970617;28;20447;-55
2022/01/19 09:44:43;;;;;;;16.95;12.35;;;7.90;71.80;;;;;;4971449;28;20120;-55
2022/01/19 09:47:10;;;;;;;16.73;13.10;;;7.90;71.90;;;;;;4976111;28;20046;-53
2022/01/19 09:49:37;;;;;;;17.38;13.18;;;7.90;71.80;;;;;;4988634;28;20153;-54
2022/01/19 09:52:04;;;;;;;16.10;12.32;;;7.90;71.80;;;;;;4985500;28;20109;-54
2022/01/19 09:54:31;;;;;;;16.63;13.18;;;7.90;71.70;;;;;;4965214;28;20088;-55
2022/01/19 09:56:58;;;;;;;17.55;13.55;;;8.00;71.70;;;;;;4985811;28;20037;-53
2022/01/19 09:59:26;;;;;;;16.92;13.52;;;8.00;71.60;;;;;;4970800;28;20097;-53
2022/01/19 10:01:54;;;;;;;18.17;12.65;;;8.00;71.70;;;;;;4954168;28;20047;-55
2022/01/19 10:04:46;;;;;;;16.92;13.52;;;8.00;71.70;;;;;;4970426;28;20051;-54
2022/01/19 10:07:19;;;;;;;17.65;12.75;;;8.00;71.00;;;;;;4986074;28;20058;-53
2022/01/19 10:09:57;;;;;;;16.48;12.82;;;8.10;71.30;;;;;;4972254;28;20069;-54
2022/01/19 10:18:18;;;;;;;16.55;13.68;;;8.10;71.10;;;;;;4992953;28;20062;-47
2022/01/19 10:20:47;;;;;;;14.13;8.75;;;8.10;71.00;;;;;;4993181;28;20046;-49
2022/01/19 10:23:36;;;;;;;17.48;12.82;;;8.10;71.00;;;;;;4996959;28;20470;-49
2022/01/19 10:26:06;;;;;;;14.60;11.77;;;8.10;70.70;;;;;;4989112;28;20038;-49
2022/01/19 10:28:53;;;;;;;17.23;12.43;;;8.10;71.20;;;;;;4971932;28;20071;-49
2022/01/19 10:31:20;;;;;;;17.05;12.77;;;8.20;70.60;;;;;;4989835;28;20050;-48
2022/01/19 10:34:20;;;;;;;15.95;13.07;;;8.20;71.10;;;;;;4979305;28;20562;-45
2022/01/19 10:36:55;;;;;;;16.15;11.63;;;8.30;70.70;;;;;;4964634;28;20109;-48
2022/01/19 10:39:25;;;;;;;14.35;12.05;;;8.30;70.90;;;;;;4979956;28;20050;-48
2022/01/19 10:42:07;;;;;;;18.65;12.82;;;8.30;70.80;;;;;;4982516;28;20449;-49
2022/01/19 10:44:36;;;;;;;17.98;11.68;;;8.30;70.20;;;;;;4971226;28;20109;-50
2022/01/19 10:48:01;;;;;;;14.35;11.82;;;8.40;70.40;;;;;;4970523;28;20122;-49
2022/01/19 10:50:30;;;;;;;20.08;13.20;;;8.40;69.70;;;;;;4893254;29;20091;-50
2022/01/19 10:53:04;;;;;;;16.38;11.95;;;8.30;70.20;;;;;;4892337;29;20049;-50
2022/01/19 10:55:48;;;;;;;18.17;13.38;;;8.30;70.20;;;;;;4933551;28;20482;-51
2022/01/19 10:58:16;;;;;;;15.65;11.98;;;8.40;69.70;;;;;;4976746;28;20074;-49
2022/01/19 11:00:51;;;;;;;14.73;12.05;;;8.30;70.00;;;;;;4973978;28;20089;-56
2022/01/19 11:03:28;;;;;;;18.17;12.75;;;8.40;69.80;;;;;;4987775;28;20065;-55
2022/01/19 11:06:01;;;;;;;17.45;12.75;;;8.30;69.70;;;;;;4968418;28;20042;-55
2022/01/19 11:08:29;;;;;;;16.90;13.82;;;8.30;69.90;;;;;;4974640;28;20050;-55
2022/01/19 11:10:59;;;;;;;17.10;13.02;;;8.30;69.80;;;;;;4978957;28;20134;-53
2022/01/19 11:13:40;;;;;;;15.27;12.48;;;8.30;69.80;;;;;;4979161;28;20046;-54
2022/01/19 11:16:08;;;;;;;17.38;13.50;;;8.30;69.90;;;;;;4970633;28;20566;-55
2022/01/19 11:18:39;;;;;;;19.25;14.52;;;8.30;69.90;;;;;;4978167;28;20132;-54
2022/01/19 11:21:11;;;;;;;20.08;13.65;;;8.30;70.00;;;;;;4978114;28;20397;-56
2022/01/19 11:24:11;;;;;;;18.33;12.85;;;8.30;69.90;;;;;;4956934;28;20103;-56
2022/01/19 11:26:38;;;;;;;17.98;13.35;;;8.30;69.70;;;;;;4974367;28;20693;-54
2022/01/19 11:29:23;;;;;;;19.08;13.02;;;8.30;69.90;;;;;;4982505;28;20085;-53
2022/01/19 11:31:51;;;;;;;17.40;13.60;;;8.30;69.70;;;;;;4951144;28;20098;-55
2022/01/19 11:34:42;;;;;;;18.42;13.00;;;8.30;69.90;;;;;;4957162;28;20053;-56
2022/01/19 11:37:09;;;;;;;18.25;13.27;;;8.30;69.80;;;;;;4983945;28;20077;-55
2022/01/19 11:39:36;;;;;;;18.35;13.77;;;8.30;70.20;;;;;;4981727;28;20521;-55
2022/01/19 11:42:07;;;;;;;17.38;13.88;;;8.30;70.20;;;;;;4988971;28;20042;-55
2022/01/19 11:44:35;;;;;;;20.07;14.53;;;8.30;70.20;;;;;;4974252;28;20038;-56
2022/01/19 11:47:13;;;;;;;19.33;13.65;;;8.30;70.20;;;;;;4983315;28;20661;-56
2022/01/19 11:49:57;;;;;;;18.17;13.40;;;8.30;70.00;;;;;;4977110;28;20047;-52
2022/01/19 11:52:29;;;;;;;19.90;14.20;;;8.40;70.10;;;;;;4991395;28;20043;-52
2022/01/19 11:55:23;;;;;;;18.20;13.13;;;8.40;70.00;;;;;;4982595;28;20561;-56
2022/01/19 11:58:17;;;;;;;19.73;13.18;;;8.40;69.70;;;;;;4980303;28;20051;-55
2022/01/19 12:00:46;;;;;;;21.50;13.82;;;8.40;69.60;;;;;;4953198;28;20467;-55
2022/01/19 12:03:18;;;;;;;18.63;14.23;;;8.40;70.00;;;;;;4960850;28;20039;-54
2022/01/19 12:06:05;;;;;;;16.83;12.93;;;8.40;69.90;;;;;;4975623;28;20125;-54
2022/01/19 12:08:36;;;;;;;21.45;13.82;;;8.40;69.90;;;;;;4979526;28;20098;-55
2022/01/19 12:11:23;;;;;;;22.15;14.20;;;8.40;69.70;;;;;;4971020;28;20105;-54
2022/01/19 12:14:07;;;;;;;18.55;12.52;;;8.40;69.50;;;;;;4975656;28;20104;-54
2022/01/19 12:19:06;;;;;;;18.60;13.55;;;8.40;69.60;;;;;;4981643;28;20117;-54
2022/01/19 12:21:42;;;;;;;18.13;12.80;;;8.40;69.70;;;;;;4974657;28;20035;-53
2022/01/19 12:24:38;;;;;;;18.17;13.40;;;8.40;69.70;;;;;;4972978;28;20125;-55
2022/01/19 12:27:05;;;;;;;18.85;13.00;;;8.50;69.80;;;;;;4981853;28;20058;-53
2022/01/19 12:29:39;;;;;;;16.77;12.50;;;8.50;69.80;;;;;;4969080;28;20046;-53
2022/01/19 12:32:18;;;;;;;16.90;12.95;;;8.50;69.90;;;;;;4990819;28;20049;-51
2022/01/19 12:34:50;;;;;;;18.70;14.25;;;8.50;69.70;;;;;;4977902;28;20498;-55
2022/01/19 12:37:32;;;;;;;21.75;13.65;;;8.50;69.40;;;;;;4973069;28;20043;-54
2022/01/19 12:40:03;;;;;;;19.50;13.48;;;8.50;69.30;;;;;;4965020;28;20057;-54
2022/01/19 12:42:50;;;;;;;15.85;12.38;;;8.50;69.40;;;;;;4970887;28;20042;-55
2022/01/19 12:45:19;;;;;;;17.30;13.45;;;8.50;69.30;;;;;;4961444;28;20047;-54
2022/01/19 12:47:51;;;;;;;19.00;13.63;;;8.50;69.50;;;;;;4965367;28;20457;-55
2022/01/19 12:50:18;;;;;;;16.65;12.82;;;8.40;69.50;;;;;;4961223;28;20574;-55
2022/01/19 12:52:54;;;;;;;17.27;13.15;;;8.40;69.70;;;;;;4970503;28;20042;-54
2022/01/19 12:55:26;;;;;;;18.65;13.20;;;8.40;69.60;;;;;;4967811;28;20046;-55
2022/01/19 12:57:55;;;;;;;21.98;15.00;;;8.40;69.70;;;;;;4968024;28;20035;-56
2022/01/19 13:00:28;;;;;;;20.30;14.27;;;8.40;69.90;;;;;;4972221;28;20034;-53
2022/01/19 13:02:55;;;;;;;18.52;13.95;;;8.40;69.90;;;;;;4990952;28;20105;-54
2022/01/19 13:05:21;;;;;;;17.92;13.38;;;8.40;70.10;;;;;;4973564;28;20051;-56
2022/01/19 13:07:56;;;;;;;19.70;14.00;;;8.40;70.00;;;;;;4973093;28;20105;-52
2022/01/19 13:13:10;;;;;;;18.92;13.55;;;8.30;70.10;;;;;;4970077;28;20089;-53
2022/01/19 13:15:55;;;;;;;18.88;13.65;;;8.30;70.30;;;;;;4963183;28;20098;-55
2022/01/19 13:18:42;;;;;;;19.23;14.07;;;8.30;70.40;;;;;;4980835;28;20170;-55
2022/01/19 13:21:15;;;;;;;22.33;14.63;;;8.30;70.60;;;;;;4973812;28;20106;-55
2022/01/19 13:24:02;;;;;;;19.08;15.57;;;8.30;70.80;;;;;;4967588;28;20067;-54
2022/01/19 13:26:42;;;;;;;19.00;14.13;;;8.30;70.90;;;;;;4973319;28;20581;-55
2022/01/19 13:29:15;;;;;;;21.23;15.80;;;8.20;71.00;;;;;;4984401;28;20059;-54
2022/01/19 13:32:00;;;;;;;20.08;14.35;;;8.20;71.10;;;;;;4965531;28;20061;-55
2022/01/19 13:34:29;;;;;;;19.83;13.70;;;8.20;71.40;;;;;;4964550;28;20043;-55
2022/01/19 13:36:59;;;;;;;19.08;14.27;;;8.20;71.40;;;;;;4978347;28;20431;-55
2022/01/19 13:39:28;;;;;;;23.27;15.18;;;8.20;71.50;;;;;;4971693;28;20039;-52
2022/01/19 13:41:57;;;;;;;24.42;15.93;;;8.10;71.50;;;;;;4968979;28;20058;-55
2022/01/19 13:44:32;;;;;;;27.38;17.20;;;8.10;71.70;;;;;;4965486;28;20075;-55
2022/01/19 13:47:12;;;;;;;22.85;15.40;;;8.10;72.00;;;;;;4970223;28;20069;-51
2022/01/19 13:49:40;;;;;;;23.67;15.88;;;8.10;72.40;;;;;;4981477;28;20050;-54
2022/01/19 13:52:09;;;;;;;21.15;15.20;;;8.10;72.20;;;;;;4989597;28;20104;-55
2022/01/19 13:54:38;;;;;;;20.13;15.48;;;8.10;72.30;;;;;;4989924;28;20081;-54
2022/01/19 13:57:06;;;;;;;20.17;15.90;;;8.10;72.50;;;;;;4981320;28;20513;-54
2022/01/19 13:59:32;;;;;;;25.08;16.65;;;8.10;72.40;;;;;;4982394;28;20511;-55
2022/01/19 14:02:01;;;;;;;20.60;15.98;;;8.10;72.50;;;;;;4973848;28;20077;-54
2022/01/19 14:04:31;;;;;;;23.60;15.43;;;8.10;72.50;;;;;;4971023;28;20047;-56
2022/01/19 14:07:10;;;;;;;24.33;16.98;;;8.10;72.50;;;;;;4983904;28;20043;-55
2022/01/19 14:09:37;;;;;;;21.98;16.10;;;8.10;72.60;;;;;;4981105;28;20034;-55
2022/01/19 14:12:16;;;;;;;30.10;17.02;;;8.10;72.50;;;;;;4969817;28;20097;-53
2022/01/19 14:14:49;;;;;;;24.20;17.25;;;8.10;72.50;;;;;;4968026;28;20513;-51
2022/01/19 14:17:37;;;;;;;23.00;16.48;;;8.10;72.50;;;;;;4992120;28;20030;-56
2022/01/19 14:20:14;;;;;;;24.83;16.98;;;8.10;72.60;;;;;;4972737;28;20603;-53
2022/01/19 14:22:43;;;;;;;25.02;17.27;;;8.10;72.70;;;;;;4971567;28;20203;-55
2022/01/19 14:25:16;;;;;;;27.45;17.13;;;8.10;72.70;;;;;;4989164;28;20077;-55
2022/01/19 14:27:53;;;;;;;24.50;16.73;;;8.10;72.80;;;;;;4978410;28;20054;-54
2022/01/19 14:30:29;;;;;;;27.60;18.60;;;8.10;72.80;;;;;;4942889;28;20199;-56
2022/01/19 14:33:09;;;;;;;25.63;17.58;;;8.10;72.90;;;;;;4965791;28;20053;-54
2022/01/19 14:35:43;;;;;;;23.55;16.90;;;8.10;73.00;;;;;;4962373;28;20039;-55
2022/01/19 14:38:31;;;;;;;22.85;16.55;;;8.10;73.00;;;;;;4971528;28;20047;-55
2022/01/19 14:41:03;;;;;;;30.33;19.33;;;8.10;73.50;;;;;;4959004;28;20054;-53